Hauptseite
METAR-TAF:

METAR-TAF

Flughäfen :

Farnborough Airfield

Farnborough, England

Breite: 51-17N, Länge: 000-46W, Höhe: 65 m

Beobachtung

Neuester Wetterbericht von vor 32 Minuten, um 18:50 UTC
Wind 7 kt aus Südwest
Temperatur 25°C
Luftfeuchtigkeit 47%
Luftdruck 1017 hPa
Sichtweite 10 km oder mehr

METAR: EGLF 061850Z AUTO 22007KT 9999 NCD 25/13 Q1017

Zeit: 20:22 (19:22 UTC)

Prognose

Neuester Wetterbericht von vor 2 Stunden und 25 Minuten, um 16:57 UTC
Gültige Prognose vom 06 um 18 UTC bis 06 um 23 UTC
Wind 7 kt aus Süd
Sichtweite 10 km oder mehr
keine Wolken unter 1500 m und keine Kumulonimbus oder Gewitterwolken

TAF: EGLF 061657Z 0618/0623 19007KT CAVOK

Wetterbeobachtungen und Prognosen von mehr als 4000 Flughäfen (METAR und TAF Bericht).

Die verfügbaren Stationen werden durch gelbe und rote Markierungen auf der Karte dargestellt.

Führen Sie die Maus auf sie, um den Namen der Station zu sehen.

Darauf klicken, um die Beobachtung von Wetterbeobachtungen und Prognosen zu sehen.

Um die Karte zu ändern : klicken Sie auf den grünen Tasten mit einem schwarzen Kreuz Zum Vergrößern, auf den grünen Button mit einem Gedankenstrich zu verkleinern, oder auf die grünen Pfeile für benachbarte Karten.


METAR-TAF: